createdAt,value
2022-12-04T00:01:24.209Z,2.03
2022-12-04T00:04:32.627Z,2.20
2022-12-04T00:07:41.083Z,1.60
2022-12-04T00:10:51.103Z,2.07
2022-12-04T00:14:06.539Z,2.03
2022-12-04T00:17:15.819Z,2.40
2022-12-04T00:20:24.300Z,1.90
2022-12-04T00:23:32.693Z,2.13
2022-12-04T00:26:42.380Z,2.20
2022-12-04T00:29:50.874Z,2.07
2022-12-04T00:32:59.181Z,1.90
2022-12-04T00:36:09.644Z,1.80
2022-12-04T00:39:17.950Z,1.80
2022-12-04T00:42:27.796Z,1.90
2022-12-04T00:45:36.089Z,2.47
2022-12-04T00:48:45.063Z,2.00
2022-12-04T00:51:53.356Z,1.80
2022-12-04T00:55:01.656Z,1.93
2022-12-04T00:58:11.904Z,2.10
2022-12-04T01:01:22.022Z,1.80
2022-12-04T01:04:30.399Z,1.50
2022-12-04T01:07:38.751Z,2.03
2022-12-04T01:10:47.093Z,1.90
2022-12-04T01:13:57.309Z,1.77
2022-12-04T01:17:05.670Z,1.77
2022-12-04T01:20:15.512Z,1.53
2022-12-04T01:23:23.835Z,1.70
2022-12-04T01:26:32.314Z,1.87
2022-12-04T01:29:41.986Z,1.80
2022-12-04T01:32:51.076Z,1.90
2022-12-04T01:36:00.948Z,1.93
2022-12-04T01:39:09.263Z,1.67
2022-12-04T01:42:17.695Z,1.70
2022-12-04T01:45:43.948Z,2.03
2022-12-04T01:48:54.266Z,1.70
2022-12-04T01:52:08.244Z,1.83
2022-12-04T01:55:16.570Z,1.80
2022-12-04T01:58:30.525Z,1.77
2022-12-04T02:01:47.999Z,1.50
2022-12-04T02:04:57.256Z,1.50
2022-12-04T02:08:06.403Z,1.70
2022-12-04T02:11:26.294Z,1.70
2022-12-04T02:14:42.590Z,1.73
2022-12-04T02:17:59.361Z,1.67
2022-12-04T02:21:15.360Z,1.60
2022-12-04T02:24:36.588Z,1.80
2022-12-04T02:28:03.367Z,1.73
2022-12-04T02:31:16.609Z,1.80
2022-12-04T02:34:29.691Z,1.60
2022-12-04T02:37:41.254Z,1.97
2022-12-04T02:40:55.782Z,1.90
2022-12-04T02:44:12.937Z,1.90
2022-12-04T02:47:24.494Z,1.90
2022-12-04T02:50:38.295Z,1.97
2022-12-04T02:53:51.336Z,2.00
2022-12-04T02:57:01.204Z,2.03
2022-12-04T03:00:12.465Z,1.90
2022-12-04T03:03:24.419Z,1.93
2022-12-04T03:06:36.139Z,1.80
2022-12-04T03:09:47.843Z,1.90
2022-12-04T03:12:59.660Z,1.63
2022-12-04T03:16:15.023Z,1.43
2022-12-04T03:19:27.936Z,1.70
2022-12-04T03:22:39.228Z,1.93
2022-12-04T03:25:59.657Z,1.63
2022-12-04T03:29:13.089Z,1.60
2022-12-04T03:32:27.439Z,1.90
2022-12-04T03:35:42.284Z,1.47
2022-12-04T03:38:56.315Z,1.80
2022-12-04T03:42:12.177Z,1.70
2022-12-04T03:45:26.405Z,1.70
2022-12-04T03:48:48.786Z,1.60
2022-12-04T03:52:01.721Z,1.63
2022-12-04T03:55:16.254Z,2.00
2022-12-04T03:58:29.489Z,1.70
2022-12-04T04:01:42.953Z,1.87
2022-12-04T04:04:56.806Z,2.00
2022-12-04T04:08:22.514Z,1.60
2022-12-04T04:11:36.289Z,1.80
2022-12-04T04:15:08.232Z,1.83
2022-12-04T04:18:34.175Z,1.83
2022-12-04T04:22:03.130Z,1.50
2022-12-04T04:25:14.454Z,1.57
2022-12-04T04:28:33.912Z,1.90
2022-12-04T04:31:46.587Z,1.77
2022-12-04T04:35:04.802Z,1.60
2022-12-04T04:38:22.552Z,1.53
2022-12-04T04:41:37.173Z,1.33
2022-12-04T04:44:52.247Z,1.60
2022-12-04T04:48:06.845Z,1.70
2022-12-04T04:51:15.779Z,1.80
2022-12-04T04:54:26.383Z,1.60
2022-12-04T04:57:36.702Z,1.77
2022-12-04T05:00:53.298Z,1.80
2022-12-04T05:04:02.001Z,1.67
2022-12-04T05:07:10.289Z,1.60
2022-12-04T05:10:20.102Z,1.83
2022-12-04T05:13:29.261Z,1.43
2022-12-04T05:16:37.662Z,1.60
2022-12-04T05:19:55.322Z,1.80
2022-12-04T05:23:03.733Z,1.70
2022-12-04T05:26:13.584Z,2.00
2022-12-04T05:29:21.925Z,1.73
2022-12-04T05:32:31.026Z,2.00
2022-12-04T05:35:39.289Z,2.10
2022-12-04T05:38:47.573Z,1.50
2022-12-04T05:41:57.292Z,2.00
2022-12-04T05:45:06.485Z,1.70
2022-12-04T05:48:15.462Z,1.90
2022-12-04T05:51:23.830Z,1.90
2022-12-04T05:54:32.107Z,1.83
2022-12-04T05:57:41.759Z,1.97
2022-12-04T06:00:50.139Z,2.00
2022-12-04T06:03:58.452Z,1.90
2022-12-04T06:07:07.038Z,1.87
2022-12-04T06:10:15.380Z,1.63
2022-12-04T06:13:25.079Z,1.77
2022-12-04T06:16:36.158Z,1.80
2022-12-04T06:19:44.569Z,2.10
2022-12-04T06:22:52.836Z,1.83
2022-12-04T06:26:07.071Z,2.07
2022-12-04T06:29:17.882Z,1.73
2022-12-04T06:32:26.195Z,2.00
2022-12-04T06:35:34.499Z,1.87
2022-12-04T06:38:43.511Z,1.77
2022-12-04T06:41:51.837Z,1.90
2022-12-04T06:45:01.556Z,1.83
2022-12-04T06:48:09.902Z,1.80
2022-12-04T06:51:20.087Z,2.03
2022-12-04T06:54:28.411Z,2.00
2022-12-04T06:57:36.798Z,1.87
2022-12-04T07:00:46.500Z,1.70
2022-12-04T07:03:55.496Z,1.90
2022-12-04T07:07:03.889Z,2.10
2022-12-04T07:10:12.901Z,1.70
2022-12-04T07:13:21.208Z,1.70
2022-12-04T07:16:35.442Z,1.87
2022-12-04T07:19:48.724Z,1.40
2022-12-04T07:22:57.273Z,1.90
2022-12-04T07:26:07.750Z,2.07
2022-12-04T07:29:16.244Z,1.77
2022-12-04T07:32:25.879Z,2.20
2022-12-04T07:35:34.310Z,2.00
2022-12-04T07:38:43.044Z,1.80
2022-12-04T07:41:51.383Z,1.80
2022-12-04T07:45:00.685Z,1.37
2022-12-04T07:48:10.564Z,1.90
2022-12-04T07:51:20.930Z,1.83
2022-12-04T07:54:29.211Z,1.63
2022-12-04T07:57:37.503Z,1.50
2022-12-04T08:00:45.822Z,2.00
2022-12-04T08:03:58.352Z,2.03
2022-12-04T08:07:06.873Z,1.63
2022-12-04T08:10:15.463Z,1.70
2022-12-04T08:13:23.716Z,1.70
2022-12-04T08:16:33.665Z,1.63
2022-12-04T08:19:43.450Z,1.23
2022-12-04T08:22:51.846Z,1.70
2022-12-04T08:26:00.955Z,1.97
2022-12-04T08:29:09.369Z,1.60
2022-12-04T08:32:17.721Z,1.70
2022-12-04T08:35:27.409Z,1.83
2022-12-04T08:38:35.916Z,1.60
2022-12-04T08:41:44.327Z,1.60
2022-12-04T08:44:52.586Z,1.80
2022-12-04T08:48:00.992Z,1.50
2022-12-04T08:51:15.162Z,1.40
2022-12-04T08:54:23.451Z,1.67
2022-12-04T08:57:31.763Z,2.03
2022-12-04T09:00:40.336Z,1.40
2022-12-04T09:03:48.606Z,1.60
2022-12-04T09:06:58.356Z,1.50
2022-12-04T09:10:07.862Z,1.43
2022-12-04T09:13:16.252Z,1.43
2022-12-04T09:16:26.279Z,1.70
2022-12-04T09:19:35.981Z,1.43
2022-12-04T09:23:03.392Z,1.70
2022-12-04T09:26:20.135Z,1.57
2022-12-04T09:29:28.725Z,1.50
2022-12-04T09:32:37.754Z,1.50
2022-12-04T09:35:46.228Z,1.60
2022-12-04T09:38:56.372Z,1.60
2022-12-04T09:42:19.283Z,1.47
2022-12-04T09:45:28.520Z,1.60
2022-12-04T09:48:42.223Z,1.80
2022-12-04T09:51:52.278Z,1.40
2022-12-04T09:55:05.149Z,1.53
2022-12-04T09:58:17.596Z,1.57
2022-12-04T10:01:30.340Z,1.40
2022-12-04T10:04:38.699Z,1.50
2022-12-04T10:07:52.820Z,1.60
2022-12-04T10:11:11.752Z,1.63
2022-12-04T10:14:42.725Z,1.80
2022-12-04T10:18:13.190Z,1.30
2022-12-04T10:21:44.480Z,1.63
2022-12-04T10:24:55.104Z,1.70
2022-12-04T10:28:20.333Z,1.70
2022-12-04T10:31:31.441Z,1.63
2022-12-04T10:34:45.475Z,1.60
2022-12-04T10:37:59.602Z,1.60
2022-12-04T10:41:15.515Z,1.80
2022-12-04T10:44:25.546Z,1.70
2022-12-04T10:47:34.446Z,1.80
2022-12-04T10:50:42.821Z,1.67
2022-12-04T10:53:51.647Z,1.90
2022-12-04T10:57:02.008Z,1.40
2022-12-04T11:00:29.930Z,1.50
2022-12-04T11:03:38.445Z,1.70
2022-12-04T11:06:47.095Z,1.40
2022-12-04T11:09:58.381Z,1.50
2022-12-04T11:13:08.766Z,1.50
2022-12-04T11:16:37.729Z,1.47
2022-12-04T11:19:46.097Z,1.57
2022-12-04T11:22:57.149Z,1.13
2022-12-04T11:26:06.451Z,1.60
2022-12-04T11:29:17.389Z,1.53
2022-12-04T11:32:29.796Z,1.30
2022-12-04T11:35:38.250Z,1.70
2022-12-04T11:38:46.621Z,1.50
2022-12-04T11:42:02.077Z,1.60
2022-12-04T11:45:22.506Z,1.47
2022-12-04T11:48:33.424Z,1.47
2022-12-04T11:51:53.684Z,1.70
2022-12-04T11:55:04.604Z,1.40
2022-12-04T11:58:37.738Z,1.70
2022-12-04T12:01:57.988Z,1.60
2022-12-04T12:05:59.189Z,1.50
2022-12-04T12:09:23.834Z,1.67
2022-12-04T12:12:42.320Z,1.77
2022-12-04T12:15:59.871Z,1.50
2022-12-04T12:19:28.291Z,1.50
2022-12-04T12:23:05.632Z,1.83
2022-12-04T12:26:16.228Z,1.47
2022-12-04T12:29:49.089Z,1.50
2022-12-04T12:33:09.380Z,1.47
2022-12-04T12:36:21.680Z,1.50
2022-12-04T12:39:39.470Z,1.93
2022-12-04T12:42:58.040Z,1.47
2022-12-04T12:46:13.205Z,1.67
2022-12-04T12:49:26.204Z,1.60
2022-12-04T12:52:42.494Z,1.73
2022-12-04T12:55:56.667Z,1.87
2022-12-04T12:59:08.802Z,1.73
2022-12-04T13:02:26.416Z,1.50
2022-12-04T13:05:38.605Z,1.70
2022-12-04T13:08:58.027Z,2.07
2022-12-04T13:12:15.827Z,1.70
2022-12-04T13:15:28.028Z,1.80
2022-12-04T13:18:41.790Z,1.67
2022-12-04T13:21:59.790Z,1.50
2022-12-04T13:25:22.646Z,1.53
2022-12-04T13:28:45.422Z,1.53
2022-12-04T13:32:01.198Z,1.57
2022-12-04T13:35:18.634Z,1.30
2022-12-04T13:38:35.127Z,1.57
2022-12-04T13:41:43.482Z,1.63
2022-12-04T13:44:58.850Z,1.63
2022-12-04T13:48:07.802Z,1.37
2022-12-04T13:51:37.264Z,1.37
2022-12-04T13:54:57.803Z,1.67
2022-12-04T13:58:27.404Z,1.50
2022-12-04T14:01:41.195Z,1.57
2022-12-04T14:04:56.887Z,1.40
2022-12-04T14:08:21.808Z,1.20
2022-12-04T14:11:34.422Z,1.20
2022-12-04T14:14:46.812Z,1.47
2022-12-04T14:18:02.601Z,1.23
2022-12-04T14:21:10.962Z,1.30
2022-12-04T14:24:29.848Z,1.30
2022-12-04T14:27:45.517Z,1.33
2022-12-04T14:31:07.757Z,1.40
2022-12-04T14:34:23.924Z,1.40
2022-12-04T14:37:35.616Z,1.57
2022-12-04T14:40:46.277Z,1.20
2022-12-04T14:43:55.211Z,1.30
2022-12-04T14:47:15.289Z,1.27
2022-12-04T14:50:33.076Z,1.47
2022-12-04T14:53:47.277Z,1.30
2022-12-04T14:57:09.208Z,1.33
2022-12-04T15:00:19.922Z,1.30
2022-12-04T15:03:31.186Z,1.30
2022-12-04T15:06:41.152Z,1.20
2022-12-04T15:10:12.026Z,1.47
2022-12-04T15:13:27.423Z,1.40
2022-12-04T15:16:35.729Z,1.20
2022-12-04T15:19:44.530Z,1.20
2022-12-04T15:22:57.395Z,0.90
2022-12-04T15:26:08.225Z,1.37
2022-12-04T15:29:20.818Z,1.27
2022-12-04T15:32:29.805Z,1.27
2022-12-04T15:35:43.594Z,1.50
2022-12-04T15:38:54.700Z,1.10
2022-12-04T15:42:07.484Z,1.30
2022-12-04T15:45:31.946Z,1.30
2022-12-04T15:48:45.032Z,1.30
2022-12-04T15:52:07.115Z,1.30
2022-12-04T15:55:20.224Z,1.13
2022-12-04T15:58:30.932Z,1.20
2022-12-04T16:01:40.737Z,1.30
2022-12-04T16:04:49.112Z,1.37
2022-12-04T16:07:59.811Z,1.50
2022-12-04T16:11:25.470Z,1.30
2022-12-04T16:14:33.821Z,1.20
2022-12-04T16:17:42.259Z,1.23
2022-12-04T16:20:50.645Z,1.30
2022-12-04T16:24:03.273Z,1.43
2022-12-04T16:27:14.976Z,1.20
2022-12-04T16:30:23.253Z,1.30
2022-12-04T16:33:31.602Z,0.97
2022-12-04T16:36:39.945Z,1.30
2022-12-04T16:39:49.131Z,1.70
2022-12-04T16:42:58.815Z,1.20
2022-12-04T16:46:07.463Z,1.63
2022-12-04T16:49:15.830Z,1.30
2022-12-04T16:52:24.125Z,1.40
2022-12-04T16:55:35.849Z,1.37
2022-12-04T16:58:45.941Z,1.40
2022-12-04T17:01:54.646Z,1.13
2022-12-04T17:05:03.470Z,1.30
2022-12-04T17:08:12.235Z,1.30
2022-12-04T17:11:20.667Z,1.60
2022-12-04T17:14:30.529Z,1.60
2022-12-04T17:17:39.121Z,1.50
2022-12-04T17:20:47.408Z,1.77
2022-12-04T17:23:55.680Z,1.77
2022-12-04T17:27:06.213Z,1.50
2022-12-04T17:30:16.862Z,1.40
2022-12-04T17:33:25.241Z,1.60
2022-12-04T17:36:33.610Z,1.67
2022-12-04T17:39:41.913Z,1.87
2022-12-04T17:42:50.248Z,1.40
2022-12-04T17:46:00.120Z,1.60
2022-12-04T17:49:08.397Z,1.47
2022-12-04T17:52:18.763Z,1.60
2022-12-04T17:55:27.037Z,1.60
2022-12-04T17:58:36.126Z,2.10
2022-12-04T18:01:45.913Z,1.90
2022-12-04T18:04:55.704Z,1.73
2022-12-04T18:08:04.432Z,1.53
2022-12-04T18:11:13.097Z,1.83
2022-12-04T18:14:23.618Z,1.67
2022-12-04T18:17:33.434Z,1.50
2022-12-04T18:20:42.353Z,1.70
2022-12-04T18:23:50.767Z,1.57
2022-12-04T18:26:59.074Z,2.00
2022-12-04T18:30:08.902Z,1.90
2022-12-04T18:33:19.196Z,1.87
2022-12-04T18:36:30.042Z,2.00
2022-12-04T18:39:38.510Z,1.97
2022-12-04T18:42:49.031Z,1.93
2022-12-04T18:46:06.996Z,1.80
2022-12-04T18:49:17.211Z,1.80
2022-12-04T18:52:25.465Z,2.07
2022-12-04T18:55:37.133Z,1.70
2022-12-04T18:58:46.567Z,1.70
2022-12-04T19:01:56.208Z,2.07
2022-12-04T19:05:06.333Z,1.80
2022-12-04T19:08:14.703Z,1.70
2022-12-04T19:11:23.199Z,1.77
2022-12-04T19:14:31.623Z,1.80
2022-12-04T19:17:40.234Z,1.50
2022-12-04T19:20:49.912Z,1.80
2022-12-04T19:24:00.176Z,1.80
2022-12-04T19:27:11.068Z,1.87
2022-12-04T19:30:19.733Z,1.90
2022-12-04T19:33:28.902Z,1.80
2022-12-04T19:36:38.652Z,2.10
2022-12-04T19:39:47.118Z,2.13
2022-12-04T19:43:02.499Z,1.87
2022-12-04T19:46:13.056Z,1.60
2022-12-04T19:49:21.570Z,1.70
2022-12-04T19:52:32.020Z,1.80
2022-12-04T19:55:40.369Z,1.50
2022-12-04T19:58:49.155Z,1.67
2022-12-04T20:01:57.702Z,1.90
2022-12-04T20:05:07.247Z,1.50
2022-12-04T20:08:17.222Z,1.80
2022-12-04T20:11:26.548Z,1.97
2022-12-04T20:14:34.996Z,1.97
2022-12-04T20:17:43.560Z,1.70
2022-12-04T20:20:56.278Z,2.00
2022-12-04T20:24:07.704Z,1.80
2022-12-04T20:27:16.713Z,1.80
2022-12-04T20:30:25.054Z,1.63
2022-12-04T20:33:33.497Z,2.10
2022-12-04T20:36:44.802Z,1.73
2022-12-04T20:39:55.517Z,1.83
2022-12-04T20:43:04.160Z,1.77
2022-12-04T20:46:16.847Z,2.03
2022-12-04T20:49:25.343Z,2.00
2022-12-04T20:52:33.877Z,1.80
2022-12-04T20:55:43.616Z,1.80
2022-12-04T20:58:51.979Z,2.40
2022-12-04T21:02:00.535Z,2.00
2022-12-04T21:05:09.574Z,1.83
2022-12-04T21:08:38.097Z,2.10
2022-12-04T21:11:49.247Z,2.20
2022-12-04T21:15:15.446Z,1.80
2022-12-04T21:18:24.274Z,2.20
2022-12-04T21:21:32.711Z,1.53
2022-12-04T21:24:42.228Z,1.80
2022-12-04T21:27:51.993Z,2.00
2022-12-04T21:31:03.295Z,1.90
2022-12-04T21:34:13.253Z,1.70
2022-12-04T21:37:21.676Z,2.03
2022-12-04T21:40:30.057Z,2.10
2022-12-04T21:43:39.816Z,2.20
2022-12-04T21:46:49.104Z,2.13
2022-12-04T21:49:58.167Z,2.30
2022-12-04T21:53:06.621Z,2.03
2022-12-04T21:56:14.937Z,2.20
2022-12-04T21:59:25.131Z,2.10
2022-12-04T22:02:34.949Z,2.30
2022-12-04T22:05:44.547Z,1.90
2022-12-04T22:08:53.850Z,2.10
2022-12-04T22:12:04.218Z,1.83
2022-12-04T22:15:24.622Z,2.23
2022-12-04T22:18:33.711Z,1.87
2022-12-04T22:21:42.286Z,1.90
2022-12-04T22:24:50.575Z,1.90
2022-12-04T22:27:59.015Z,2.13
2022-12-04T22:31:11.618Z,1.80
2022-12-04T22:34:19.973Z,1.90
2022-12-04T22:37:28.305Z,2.00
2022-12-04T22:40:38.271Z,2.03
2022-12-04T22:43:47.181Z,1.93
2022-12-04T22:46:58.044Z,1.97
2022-12-04T22:50:08.118Z,2.10
2022-12-04T22:53:16.448Z,1.90
2022-12-04T22:56:26.363Z,1.97
2022-12-04T22:59:34.796Z,1.93
2022-12-04T23:02:44.581Z,1.90
2022-12-04T23:05:52.954Z,2.00
2022-12-04T23:09:04.226Z,2.17
2022-12-04T23:12:12.549Z,1.93
2022-12-04T23:15:20.872Z,2.13
2022-12-04T23:18:30.667Z,2.20
2022-12-04T23:21:39.263Z,1.90
2022-12-04T23:24:47.627Z,2.07
2022-12-04T23:27:56.253Z,2.20
2022-12-04T23:31:05.247Z,2.17
2022-12-04T23:34:14.944Z,1.60
2022-12-04T23:37:23.202Z,2.50
2022-12-04T23:40:31.524Z,1.97
2022-12-04T23:43:40.689Z,2.37
2022-12-04T23:46:49.112Z,1.90
2022-12-04T23:49:59.199Z,2.03
2022-12-04T23:53:07.716Z,1.90
2022-12-04T23:56:17.663Z,1.90
2022-12-04T23:59:26.008Z,2.17
